Time;durP1;ratioP1;P1;durP2;ratioP2;P2;SDS_P1;SDS_P2;PMS_P1;PMS_P2;Temp;Humidity;BMP_temperature;BMP_pressure;BME280_temperature;BME280_humidity;BME280_pressure;Samples;Min_cycle;Max_cycle;Signal;HPM_P1;HPM_P2
2023/03/22 05:30:36;;;;;;;;;2.25;1.75;;;;;12.16;69.28;100646.28;5073021;27;45529;-76
2023/03/22 05:33:03;;;;;;;;;1.50;1.50;;;;;12.01;69.76;100639.88;5042668;28;45439;-75
2023/03/22 05:35:30;;;;;;;;;1.00;1.00;;;;;11.93;70.03;100627.81;5035378;28;45258;-75
2023/03/22 05:37:56;;;;;;;;;1.00;1.00;;;;;11.98;69.71;100645.44;5035171;28;46200;-75
2023/03/22 05:40:22;;;;;;;;;1.75;1.00;;;;;12.00;70.12;100637.28;5035522;28;45329;-74
2023/03/22 05:42:48;;;;;;;;;1.50;1.00;;;;;11.99;69.97;100640.94;5034899;28;45518;-73
2023/03/22 05:45:13;;;;;;;;;1.50;1.50;;;;;11.99;69.85;100632.88;5045534;28;45351;-73
2023/03/22 05:47:39;;;;;;;;;1.25;1.25;;;;;12.05;69.79;100643.28;5034881;28;45300;-74
2023/03/22 05:50:06;;;;;;;;;2.00;2.00;;;;;12.10;70.07;100657.34;5034897;28;45315;-75
2023/03/22 05:52:32;;;;;;;;;2.25;1.00;;;;;12.06;70.20;100645.03;5034758;28;45279;-74
2023/03/22 05:54:57;;;;;;;;;3.75;2.50;;;;;11.98;70.05;100633.81;5017149;28;45512;-76
2023/03/22 05:57:22;;;;;;;;;8.00;5.50;;;;;12.14;69.85;100640.09;5042570;28;45518;-75
2023/03/22 05:59:48;;;;;;;;;2.50;2.25;;;;;12.15;69.57;100635.59;5035643;28;45395;-76
2023/03/22 06:02:13;;;;;;;;;6.50;4.50;;;;;12.16;70.16;100642.72;5034950;28;45363;-76
2023/03/22 06:04:40;;;;;;;;;2.50;2.50;;;;;12.04;70.01;100614.69;5036055;28;45424;-78
2023/03/22 06:07:06;;;;;;;;;2.75;2.00;;;;;12.05;70.58;100635.22;5059474;28;45666;-76
2023/03/22 06:09:31;;;;;;;;;1.00;1.00;;;;;12.03;70.39;100626.38;5037592;28;46123;-74
2023/03/22 06:11:57;;;;;;;;;3.00;2.25;;;;;12.04;70.79;100620.91;5034867;28;45359;-74
2023/03/22 06:14:22;;;;;;;;;2.00;2.00;;;;;12.15;70.66;100638.28;5034215;28;45340;-74
2023/03/22 06:16:47;;;;;;;;;3.25;2.75;;;;;12.00;71.18;100634.59;5034186;28;45497;-76
2023/03/22 06:19:13;;;;;;;;;4.00;2.00;;;;;12.11;70.95;100637.56;5034326;28;45496;-75
2023/03/22 06:21:38;;;;;;;;;0.00;0.00;;;;;12.07;70.92;100636.88;5034470;28;45127;-71
2023/03/22 06:24:04;;;;;;;;;4.00;4.00;;;;;12.04;71.00;100614.69;5034437;28;45152;-77
2023/03/22 06:26:30;;;;;;;;;3.00;3.00;;;;;12.16;70.74;100635.53;5029303;28;45326;-81
2023/03/22 06:28:55;;;;;;;;;3.25;3.25;;;;;12.11;70.79;100634.88;5034508;28;45454;-78
2023/03/22 06:31:20;;;;;;;;;3.00;2.00;;;;;12.20;70.63;100645.13;5041157;28;45426;-78
2023/03/22 06:33:46;;;;;;;;;3.75;3.75;;;;;12.17;70.92;100655.16;5054778;28;45445;-73
2023/03/22 06:36:11;;;;;;;;;4.00;4.00;;;;;12.17;70.61;100660.53;5036096;28;45482;-78
2023/03/22 06:38:36;;;;;;;;;4.50;2.75;;;;;12.22;70.78;100666.56;5054222;28;46177;-77
2023/03/22 06:41:02;;;;;;;;;4.00;3.00;;;;;12.19;70.72;100659.53;5053996;28;45423;-79
2023/03/22 06:43:27;;;;;;;;;4.00;4.00;;;;;12.25;70.73;100672.63;5034180;28;45446;-75
2023/03/22 06:45:52;;;;;;;;;6.25;3.00;;;;;12.23;70.55;100663.81;5053041;28;45798;-73
2023/03/22 06:48:18;;;;;;;;;3.00;3.00;;;;;12.24;70.74;100675.44;5052648;28;45453;-73
2023/03/22 06:50:43;;;;;;;;;3.50;3.50;;;;;12.22;70.39;100666.56;5053543;28;45429;-75
2023/03/22 06:53:09;;;;;;;;;4.25;2.75;;;;;12.28;70.36;100668.91;5054646;28;45322;-73
2023/03/22 06:55:34;;;;;;;;;3.00;3.00;;;;;12.26;70.44;100677.06;5054404;28;45291;-73
2023/03/22 06:58:01;;;;;;;;;4.75;3.00;;;;;12.24;70.79;100694.25;5053131;28;45986;-73
2023/03/22 07:00:27;;;;;;;;;3.75;3.00;;;;;12.18;71.26;100691.84;5069223;28;45492;-76
2023/03/22 07:02:52;;;;;;;;;3.00;3.00;;;;;12.24;70.66;100688.84;5056038;28;45266;-73
2023/03/22 07:05:18;;;;;;;;;4.00;2.75;;;;;12.25;70.75;100691.44;5072514;28;53814;-76
2023/03/22 07:07:43;;;;;;;;;1.00;1.00;;;;;12.34;70.35;100696.31;5054974;28;45447;-72
2023/03/22 07:10:09;;;;;;;;;4.75;4.75;;;;;12.26;70.69;100679.75;5053849;28;45989;-74
2023/03/22 07:12:35;;;;;;;;;4.00;4.00;;;;;12.37;70.64;100700.69;5054466;28;45272;-74
2023/03/22 07:15:00;;;;;;;;;2.25;2.25;;;;;12.25;70.65;100709.41;5053821;28;45508;-73
2023/03/22 07:17:26;;;;;;;;;4.00;4.00;;;;;12.35;70.62;100691.81;5053876;28;45843;-75
2023/03/22 07:19:51;;;;;;;;;3.50;3.50;;;;;12.42;70.37;100691.41;5030505;28;45506;-75
2023/03/22 07:22:20;;;;;;;;;4.00;4.00;;;;;12.56;69.99;100701.41;5053314;28;45240;-76
2023/03/22 07:24:45;;;;;;;;;5.25;4.00;;;;;12.51;69.56;100677.47;5052637;28;45576;-74
2023/03/22 07:27:10;;;;;;;;;3.00;3.00;;;;;12.65;69.37;100708.13;5065689;28;46249;-74
2023/03/22 07:29:36;;;;;;;;;3.00;3.00;;;;;12.62;69.92;100698.38;5053641;28;45244;-74
2023/03/22 07:32:01;;;;;;;;;4.00;4.00;;;;;12.52;69.62;100703.41;5035335;28;45327;-73
2023/03/22 07:34:26;;;;;;;;;3.75;3.25;;;;;12.43;70.00;100687.75;5053431;28;45465;-75
2023/03/22 07:36:52;;;;;;;;;3.00;3.00;;;;;12.50;70.50;100699.91;5053590;28;46102;-76
2023/03/22 07:39:17;;;;;;;;;5.00;4.00;;;;;12.52;70.13;100706.09;5053391;28;45344;-75
2023/03/22 07:41:42;;;;;;;;;3.25;3.00;;;;;12.44;70.04;100681.44;5053598;28;45294;-74
2023/03/22 07:44:08;;;;;;;;;3.75;3.00;;;;;12.67;69.50;100703.53;5053200;28;45599;-73
2023/03/22 07:46:33;;;;;;;;;2.25;2.25;;;;;12.47;69.46;100669.66;5053319;28;46250;-73
2023/03/22 07:48:58;;;;;;;;;3.75;2.75;;;;;12.61;69.63;100702.03;5055943;28;45174;-74
2023/03/22 07:51:24;;;;;;;;;3.50;3.25;;;;;12.69;69.70;100701.59;5057089;28;45288;-74
2023/03/22 07:53:49;;;;;;;;;1.00;1.00;;;;;12.70;70.04;100719.47;5056596;28;45567;-74
2023/03/22 07:56:15;;;;;;;;;6.00;3.75;;;;;12.70;70.40;100711.41;5056966;28;45943;-75
2023/03/22 07:58:40;;;;;;;;;3.50;3.50;;;;;12.62;69.92;100708.28;5043236;28;45434;-77
2023/03/22 08:01:09;;;;;;;;;3.25;3.25;;;;;12.74;70.32;100718.38;5056860;28;45450;-75
2023/03/22 08:03:36;;;;;;;;;2.00;2.00;;;;;12.77;70.08;100708.28;5056740;28;45374;-75
2023/03/22 08:06:06;;;;;;;;;4.50;4.50;;;;;12.81;69.97;100717.06;5056495;28;46062;-75
2023/03/22 08:08:31;;;;;;;;;1.00;1.00;;;;;12.81;70.46;100715.25;5056850;28;45579;-75
2023/03/22 08:10:57;;;;;;;;;4.00;2.25;;;;;12.83;70.14;100710.66;5057159;28;45362;-75
2023/03/22 08:13:22;;;;;;;;;1.50;1.50;;;;;12.85;69.90;100714.13;5056337;28;45643;-75
2023/03/22 08:15:48;;;;;;;;;5.50;4.00;;;;;12.93;69.90;100729.00;5056845;28;46092;-76
2023/03/22 08:18:13;;;;;;;;;6.00;4.25;;;;;12.91;69.64;100712.94;5056421;28;45310;-74
2023/03/22 08:20:39;;;;;;;;;3.00;3.00;;;;;12.95;69.40;100718.97;5038717;28;45323;-75
2023/03/22 08:23:06;;;;;;;;;1.00;1.00;;;;;12.89;69.37;100720.22;5056500;28;45526;-74
2023/03/22 08:25:32;;;;;;;;;3.50;3.50;;;;;12.97;69.88;100727.84;5064347;28;47165;-77
2023/03/22 08:27:58;;;;;;;;;3.25;3.25;;;;;12.95;69.98;100721.69;5041789;28;45439;-77
2023/03/22 08:30:23;;;;;;;;;3.00;3.00;;;;;12.73;70.31;100705.88;5056515;28;45518;-76
2023/03/22 08:32:49;;;;;;;;;6.00;3.00;;;;;12.84;70.51;100719.59;5053939;28;45517;-76
2023/03/22 08:35:15;;;;;;;;;3.00;3.00;;;;;12.78;71.23;100723.47;5055702;28;46202;-74
2023/03/22 08:37:40;;;;;;;;;4.00;2.50;;;;;12.62;71.33;100706.47;5056404;28;45374;-74
2023/03/22 08:40:08;;;;;;;;;2.00;2.00;;;;;12.68;71.50;100691.78;5057169;28;45518;-75
2023/03/22 08:42:34;;;;;;;;;2.00;2.00;;;;;12.85;71.20;100707.88;5037843;28;45280;-76
2023/03/22 08:44:59;;;;;;;;;3.00;2.00;;;;;12.86;71.24;100718.53;5038379;28;47348;-74
2023/03/22 08:47:25;;;;;;;;;3.75;3.75;;;;;12.77;71.10;100697.53;5056033;28;46848;-76
2023/03/22 08:49:50;;;;;;;;;4.00;3.25;;;;;12.97;71.57;100717.09;5056469;28;45301;-74
2023/03/22 08:52:15;;;;;;;;;4.25;4.00;;;;;12.87;71.28;100716.72;5056082;28;45604;-75
2023/03/22 08:54:41;;;;;;;;;5.75;4.25;;;;;12.84;71.72;100690.84;5056541;28;45240;-73
2023/03/22 08:57:08;;;;;;;;;4.00;4.00;;;;;12.94;71.37;100687.66;5055863;28;45320;-73
2023/03/22 08:59:34;;;;;;;;;5.00;3.75;;;;;12.98;71.69;100700.84;5056519;28;45299;-73
2023/03/22 09:01:59;;;;;;;;;3.50;3.50;;;;;12.93;71.75;100683.25;5055948;28;45176;-75
2023/03/22 09:04:25;;;;;;;;;8.50;4.00;;;;;12.95;71.83;100692.94;5056213;28;45418;-73
2023/03/22 09:06:50;;;;;;;;;3.50;3.50;;;;;12.92;72.15;100678.81;5045536;28;45675;-75
2023/03/22 09:09:16;;;;;;;;;8.00;4.00;;;;;12.84;72.89;100682.78;5056463;28;45537;-75
2023/03/22 09:11:42;;;;;;;;;2.25;2.25;;;;;12.83;72.71;100699.03;5055932;28;45456;-73
2023/03/22 09:14:08;;;;;;;;;6.50;4.25;;;;;12.89;72.94;100687.91;5055622;28;45730;-74
2023/03/22 09:16:34;;;;;;;;;4.75;2.50;;;;;12.94;72.84;100695.72;5055403;28;45382;-75
2023/03/22 09:19:00;;;;;;;;;3.00;3.00;;;;;13.00;73.11;100690.88;5055740;28;45338;-74
2023/03/22 09:21:26;;;;;;;;;3.00;2.00;;;;;12.95;73.14;100706.41;5055272;28;45486;-75
2023/03/22 09:23:51;;;;;;;;;8.25;4.00;;;;;12.86;73.43;100688.94;5055357;28;45271;-76
2023/03/22 09:26:17;;;;;;;;;5.50;4.00;;;;;12.86;73.50;100686.25;5068545;28;45761;-73
2023/03/22 09:28:44;;;;;;;;;4.00;2.00;;;;;12.95;73.52;100678.63;5055578;28;45293;-76
2023/03/22 09:31:09;;;;;;;;;5.00;5.00;;;;;13.01;73.64;100683.69;5054938;28;45511;-74
2023/03/22 09:33:36;;;;;;;;;4.25;4.25;;;;;12.96;74.17;100694.69;5055515;28;46552;-75
2023/03/22 09:36:01;;;;;;;;;3.75;3.75;;;;;12.92;74.07;100686.88;5055128;28;45328;-74
2023/03/22 09:38:31;;;;;;;;;3.00;2.00;;;;;12.99;73.76;100688.28;5055538;28;45346;-78
2023/03/22 09:41:01;;;;;;;;;4.75;4.50;;;;;12.96;74.26;100688.44;5037160;28;45704;-77
2023/03/22 09:43:31;;;;;;;;;2.50;2.50;;;;;13.01;74.17;100678.28;5055302;28;45644;-78
2023/03/22 09:45:57;;;;;;;;;4.25;3.25;;;;;13.02;74.07;100672.81;5055317;28;45253;-75
2023/03/22 09:48:36;;;;;;;;;3.75;3.75;;;;;13.04;73.84;100681.66;5055414;28;45364;-75
2023/03/22 09:51:04;;;;;;;;;5.75;5.75;;;;;12.96;73.91;100669.59;5054804;28;45447;-74
2023/03/22 09:53:31;;;;;;;;;3.25;2.50;;;;;13.02;74.41;100675.50;5055148;28;45502;-74
2023/03/22 09:56:16;;;;;;;;;5.00;5.00;;;;;12.98;74.33;100675.75;5054874;28;45450;-75
2023/03/22 09:58:49;;;;;;;;;6.00;4.00;;;;;13.01;74.62;100660.31;5054766;28;45276;-74
2023/03/22 10:01:30;;;;;;;;;4.75;4.75;;;;;12.89;74.37;100637.66;5055308;28;45499;-76
2023/03/22 10:04:33;;;;;;;;;2.00;2.00;;;;;13.00;74.27;100658.59;5055272;28;45388;-76
2023/03/22 10:07:16;;;;;;;;;4.25;4.00;;;;;12.97;74.48;100663.25;5066449;28;45509;-75
2023/03/22 10:10:16;;;;;;;;;4.75;4.75;;;;;12.85;74.84;100644.16;5055171;28;45454;-75
2023/03/22 10:12:53;;;;;;;;;1.50;1.50;;;;;12.82;75.65;100628.22;5026281;28;45470;-74
2023/03/22 10:15:27;;;;;;;;;7.25;5.50;;;;;12.83;75.31;100647.91;5054716;28;45398;-74
2023/03/22 10:17:55;;;;;;;;;5.50;4.00;;;;;12.79;75.95;100647.22;5054827;28;45498;-77
2023/03/22 10:20:40;;;;;;;;;6.50;5.00;;;;;12.82;75.72;100663.19;5036435;28;45300;-74
2023/03/22 10:23:12;;;;;;;;;6.00;6.00;;;;;12.80;75.52;100645.38;5054452;28;45505;-74
2023/03/22 10:25:39;;;;;;;;;5.00;4.50;;;;;12.88;75.61;100646.69;5063718;28;46117;-75
2023/03/22 10:28:15;;;;;;;;;5.50;5.50;;;;;13.06;75.07;100660.91;5058914;28;45263;-74
2023/03/22 10:30:41;;;;;;;;;8.75;5.50;;;;;12.87;75.14;100642.25;5054392;28;45408;-74
2023/03/22 10:33:21;;;;;;;;;1.00;1.00;;;;;12.99;74.71;100650.59;5054312;28;45553;-75
2023/03/22 10:35:50;;;;;;;;;8.00;8.00;;;;;12.85;74.94;100619.94;5052343;28;46399;-75
2023/03/22 10:38:22;;;;;;;;;5.25;4.50;;;;;12.75;75.07;100583.78;5054255;28;45316;-74
2023/03/22 10:40:50;;;;;;;;;9.75;6.00;;;;;13.10;75.12;100627.47;5054375;28;45469;-74
2023/03/22 10:43:28;;;;;;;;;6.75;5.75;;;;;13.00;74.26;100603.91;5054310;28;45402;-74
2023/03/22 10:45:55;;;;;;;;;7.00;5.50;;;;;13.27;74.13;100631.06;5054285;28;45611;-76
2023/03/22 10:48:49;;;;;;;;;6.00;5.00;;;;;13.20;74.25;100631.41;5036277;28;45429;-74
2023/03/22 10:51:29;;;;;;;;;6.25;5.25;;;;;13.22;73.46;100612.47;5051820;28;45300;-75
2023/03/22 10:53:57;;;;;;;;;7.50;4.50;;;;;13.25;72.91;100583.56;5054281;28;45367;-76
2023/03/22 10:56:23;;;;;;;;;6.75;4.50;;;;;13.27;73.50;100592.38;5054324;28;46030;-74
2023/03/22 10:58:50;;;;;;;;;6.25;5.25;;;;;13.33;73.43;100620.78;5054031;28;45299;-75
2023/03/22 11:01:30;;;;;;;;;9.00;5.50;;;;;13.18;73.15;100595.63;5054494;28;45178;-75
2023/03/22 11:04:16;;;;;;;;;7.25;5.75;;;;;13.41;72.99;100604.19;5053971;28;45517;-78
2023/03/22 11:06:51;;;;;;;;;4.50;4.50;;;;;13.49;73.02;100609.97;5061234;28;46350;-75
2023/03/22 11:09:19;;;;;;;;;4.25;4.25;;;;;13.56;72.12;100603.25;5060599;28;45507;-75
2023/03/22 11:11:52;;;;;;;;;5.50;5.00;;;;;13.56;72.20;100604.13;5074305;28;45348;-75
2023/03/22 11:14:23;;;;;;;;;6.00;6.00;;;;;13.61;72.32;100603.81;5074059;28;45707;-74
2023/03/22 11:16:55;;;;;;;;;5.00;3.50;;;;;13.80;72.41;100603.56;5073923;28;46232;-75
2023/03/22 11:19:33;;;;;;;;;5.00;5.00;;;;;13.80;71.22;100599.06;5055646;28;45403;-75
2023/03/22 11:22:00;;;;;;;;;5.50;5.50;;;;;13.82;71.34;100616.00;5074000;28;45395;-75
2023/03/22 11:24:26;;;;;;;;;7.50;7.50;;;;;13.93;71.65;100608.13;5076875;28;45612;-74
2023/03/22 11:27:09;;;;;;;;;4.25;4.00;;;;;14.14;70.75;100599.66;5070958;28;46380;-75
2023/03/22 11:29:57;;;;;;;;;4.00;4.00;;;;;14.09;70.31;100608.03;5057142;28;45382;-74
2023/03/22 11:32:34;;;;;;;;;5.00;5.00;;;;;14.06;70.55;100608.22;5057362;28;45421;-76
2023/03/22 11:35:20;;;;;;;;;5.50;4.00;;;;;14.06;70.39;100600.13;5057080;28;45626;-75
2023/03/22 11:37:51;;;;;;;;;10.50;5.50;;;;;14.12;70.02;100604.31;5056838;28;47347;-74
2023/03/22 11:40:29;;;;;;;;;7.50;6.75;;;;;14.14;69.68;100603.22;5057175;28;45362;-76
2023/03/22 11:43:02;;;;;;;;;2.75;2.75;;;;;14.10;69.73;100590.03;5056469;28;45441;-75
2023/03/22 11:45:34;;;;;;;;;6.00;4.75;;;;;14.14;69.26;100596.97;5056803;28;45146;-74
2023/03/22 11:48:04;;;;;;;;;6.00;6.00;;;;;14.00;69.48;100573.56;5038581;28;46149;-75
2023/03/22 11:50:35;;;;;;;;;4.50;4.50;;;;;13.98;69.50;100553.94;5056977;28;45278;-72
2023/03/22 11:53:01;;;;;;;;;6.50;6.00;;;;;14.24;69.17;100595.41;5057567;28;45343;-75
2023/03/22 11:55:30;;;;;;;;;7.00;4.50;;;;;14.43;68.66;100596.03;5056924;28;45485;-76
2023/03/22 11:57:56;;;;;;;;;5.50;5.50;;;;;14.43;67.94;100598.72;5056599;28;45413;-74
2023/03/22 12:00:28;;;;;;;;;6.00;6.00;;;;;14.58;67.75;100605.81;5056705;28;45350;-75
2023/03/22 12:03:00;;;;;;;;;5.50;4.50;;;;;14.67;67.47;100590.88;5057233;28;45514;-77
2023/03/22 12:05:32;;;;;;;;;6.50;5.00;;;;;14.71;66.78;100584.31;5064190;28;45461;-75
2023/03/22 12:08:04;;;;;;;;;2.00;2.00;;;;;14.84;66.04;100590.63;5048145;28;47047;-78
2023/03/22 12:10:39;;;;;;;;;9.00;6.50;;;;;14.86;66.29;100602.19;5046693;28;46932;-75
2023/03/22 12:13:23;;;;;;;;;5.25;5.00;;;;;14.81;66.27;100590.81;5057061;28;45323;-78
2023/03/22 12:15:57;;;;;;;;;6.75;6.00;;;;;14.84;66.32;100598.72;5046283;28;46547;-78
2023/03/22 12:18:29;;;;;;;;;3.00;3.00;;;;;14.99;66.29;100599.53;5057691;28;46303;-78
2023/03/22 12:20:56;;;;;;;;;5.50;5.00;;;;;15.03;65.54;100588.44;5075305;28;45503;-77
2023/03/22 12:23:28;;;;;;;;;3.50;2.50;;;;;15.12;65.06;100585.13;5075611;28;45533;-77
2023/03/22 12:26:17;;;;;;;;;3.00;3.00;;;;;15.21;65.58;100583.66;5075594;28;45484;-76
2023/03/22 12:29:02;;;;;;;;;4.00;4.00;;;;;15.04;65.14;100573.13;5075253;28;46441;-75
2023/03/22 12:31:39;;;;;;;;;6.00;4.50;;;;;15.10;64.60;100565.47;5059060;28;45410;-76
2023/03/22 12:34:16;;;;;;;;;5.00;5.00;;;;;15.07;64.65;100559.38;5055165;28;45367;-75
2023/03/22 12:36:46;;;;;;;;;3.50;3.50;;;;;15.10;64.38;100551.09;5055654;28;45513;-74
2023/03/22 12:39:41;;;;;;;;;6.25;4.00;;;;;15.06;64.39;100547.72;5055063;28;46431;-75
2023/03/22 12:42:29;;;;;;;;;6.00;3.00;;;;;15.17;64.57;100549.69;5052471;28;45496;-75
2023/03/22 12:45:04;;;;;;;;;5.50;4.75;;;;;15.26;63.56;100540.97;5055830;28;45461;-76
2023/03/22 12:47:44;;;;;;;;;5.75;4.00;;;;;15.24;63.87;100551.00;5055679;28;45391;-75
2023/03/22 12:50:12;;;;;;;;;5.00;5.00;;;;;15.22;63.51;100539.47;5055636;28;46122;-75
2023/03/22 12:52:47;;;;;;;;;5.00;3.25;;;;;15.23;63.24;100527.66;5055523;28;46915;-75
2023/03/22 12:55:26;;;;;;;;;3.75;3.75;;;;;15.38;63.16;100542.84;5055857;28;45264;-73
2023/03/22 12:57:53;;;;;;;;;6.00;4.00;;;;;15.38;62.24;100541.97;5067102;28;45521;-74
2023/03/22 13:00:26;;;;;;;;;5.00;4.00;;;;;15.29;62.33;100540.78;5061131;28;47077;-79
2023/03/22 13:03:07;;;;;;;;;4.50;4.00;;;;;15.09;62.36;100520.53;5055896;28;45402;-77
2023/03/22 13:05:34;;;;;;;;;10.25;4.50;;;;;15.15;62.81;100532.72;5057917;28;45319;-77
2023/03/22 13:08:03;;;;;;;;;4.75;3.75;;;;;15.27;62.69;100537.31;5057891;28;46329;-77
2023/03/22 13:10:28;;;;;;;;;4.25;4.25;;;;;15.27;63.11;100540.00;5071971;28;45478;-77
2023/03/22 13:13:08;;;;;;;;;5.25;5.25;;;;;15.28;62.72;100530.06;5056027;28;45326;-76
2023/03/22 13:15:37;;;;;;;;;6.50;4.00;;;;;15.11;63.11;100536.63;5037682;28;45536;-75
2023/03/22 13:18:03;;;;;;;;;6.25;6.25;;;;;15.03;63.17;100537.16;5056199;28;45350;-81
2023/03/22 13:20:32;;;;;;;;;6.00;4.00;;;;;15.16;63.35;100526.38;5055606;28;45543;-75
2023/03/22 13:23:01;;;;;;;;;5.75;4.25;;;;;15.21;62.88;100501.75;5055258;28;45874;-74
2023/03/22 13:25:34;;;;;;;;;6.25;5.00;;;;;15.24;62.93;100518.59;5062312;28;45469;-77
2023/03/22 13:28:21;;;;;;;;;4.00;4.00;;;;;15.36;62.96;100506.09;5060328;28;45323;-76
2023/03/22 13:30:51;;;;;;;;;4.25;4.25;;;;;15.44;62.49;100506.44;5055090;28;46186;-75
2023/03/22 13:33:18;;;;;;;;;6.25;5.25;;;;;15.49;62.53;100502.41;5062786;28;45478;-74
2023/03/22 13:35:53;;;;;;;;;6.25;6.00;;;;;15.48;62.57;100484.47;5045571;28;45286;-75
2023/03/22 13:38:38;;;;;;;;;6.00;5.00;;;;;15.63;62.56;100500.63;5055124;28;45525;-77
2023/03/22 13:41:20;;;;;;;;;7.75;6.00;;;;;15.55;62.48;100501.19;5055283;28;46268;-74
2023/03/22 13:43:58;;;;;;;;;2.00;2.00;;;;;15.54;62.63;100495.88;5048052;28;45342;-74
2023/03/22 13:46:23;;;;;;;;;5.50;5.25;;;;;15.61;62.30;100498.03;5074924;28;45414;-73
2023/03/22 13:48:50;;;;;;;;;5.00;3.50;;;;;15.62;62.61;100490.78;5076145;28;45596;-75
2023/03/22 13:51:22;;;;;;;;;8.00;6.50;;;;;15.59;62.54;100496.41;5075799;28;45181;-76
2023/03/22 13:54:23;;;;;;;;;10.50;7.25;;;;;15.48;62.80;100470.97;5076005;28;45375;-73
2023/03/22 13:57:00;;;;;;;;;7.50;7.00;;;;;15.55;62.96;100476.88;5072371;28;45245;-76
2023/03/22 13:59:26;;;;;;;;;2.50;2.00;;;;;15.52;62.75;100488.72;5037027;28;45418;-77
2023/03/22 14:01:52;;;;;;;;;5.50;4.25;;;;;15.40;62.93;100446.34;5055114;28;46071;-72
2023/03/22 14:04:27;;;;;;;;;7.25;6.00;;;;;15.60;62.92;100471.97;5054930;28;45341;-75
2023/03/22 14:07:26;;;;;;;;;6.00;6.00;;;;;15.57;62.93;100466.78;5062515;28;45338;-76
2023/03/22 14:10:00;;;;;;;;;7.00;7.00;;;;;15.61;62.97;100465.59;5016567;28;45267;-77
2023/03/22 14:12:53;;;;;;;;;7.75;7.50;;;;;15.67;63.21;100469.69;5054553;28;45972;-75
2023/03/22 14:15:24;;;;;;;;;7.00;6.00;;;;;15.74;63.11;100461.03;5054640;28;45426;-76
2023/03/22 14:18:14;;;;;;;;;5.25;4.75;;;;;15.84;62.26;100469.34;5065680;28;45543;-74
2023/03/22 14:20:40;;;;;;;;;8.50;7.00;;;;;15.68;62.49;100423.66;5075115;28;45158;-75
2023/03/22 14:23:19;;;;;;;;;5.25;5.25;;;;;15.85;62.50;100458.44;5058413;28;45394;-76
2023/03/22 14:25:47;;;;;;;;;7.50;5.50;;;;;15.85;62.38;100457.56;5064363;28;45444;-74
2023/03/22 14:28:20;;;;;;;;;8.75;5.75;;;;;15.89;62.44;100459.97;5039895;28;45431;-76
2023/03/22 14:30:45;;;;;;;;;5.50;4.75;;;;;15.78;62.00;100467.97;5054147;28;45568;-74
2023/03/22 14:33:19;;;;;;;;;5.25;5.25;;;;;15.78;62.02;100459.88;5054235;28;47434;-74
2023/03/22 14:35:54;;;;;;;;;3.00;3.00;;;;;15.76;61.65;100463.63;5054576;28;45334;-76
2023/03/22 14:38:26;;;;;;;;;4.00;4.00;;;;;15.71;61.97;100450.47;5036290;28;45301;-73
2023/03/22 14:41:05;;;;;;;;;4.50;4.00;;;;;15.77;61.85;100455.44;5054361;28;45628;-72
2023/03/22 14:43:31;;;;;;;;;6.50;5.00;;;;;15.67;61.68;100446.25;5036068;28;48079;-75
2023/03/22 14:46:04;;;;;;;;;7.25;4.25;;;;;15.69;61.21;100446.13;5053817;28;45286;-77
2023/03/22 14:48:32;;;;;;;;;5.00;5.00;;;;;15.76;61.11;100448.28;5054095;28;45386;-76
2023/03/22 14:51:01;;;;;;;;;5.75;4.00;;;;;15.74;61.02;100458.34;5054217;28;45344;-74
2023/03/22 14:53:33;;;;;;;;;4.50;4.50;;;;;15.64;60.77;100462.69;5054064;28;45992;-75
2023/03/22 14:56:01;;;;;;;;;6.00;6.00;;;;;15.43;60.85;100448.81;5073164;28;45518;-73
2023/03/22 14:58:33;;;;;;;;;6.00;5.00;;;;;15.65;61.12;100455.47;5074321;28;45422;-77
2023/03/22 15:01:01;;;;;;;;;4.00;4.00;;;;;15.58;61.01;100451.44;5077878;28;45378;-73
2023/03/22 15:03:30;;;;;;;;;3.00;3.00;;;;;15.68;60.90;100450.69;5077737;28;45512;-74
2023/03/22 15:05:58;;;;;;;;;4.00;4.00;;;;;15.71;61.03;100434.25;5048244;28;45510;-76
2023/03/22 15:08:26;;;;;;;;;4.00;4.00;;;;;15.78;60.76;100443.66;5065013;28;45479;-77
2023/03/22 15:10:57;;;;;;;;;5.00;3.50;;;;;15.83;61.15;100444.16;5078171;28;45458;-74
2023/03/22 15:13:25;;;;;;;;;4.75;4.75;;;;;15.83;61.15;100429.78;5077268;28;47008;-74
2023/03/22 15:15:52;;;;;;;;;5.00;5.00;;;;;15.73;61.71;100434.16;5077248;28;45283;-74
2023/03/22 15:18:19;;;;;;;;;4.00;4.00;;;;;15.62;62.07;100415.13;5069239;28;45543;-76
2023/03/22 15:20:49;;;;;;;;;5.75;5.75;;;;;15.72;61.87;100413.50;5069181;28;45535;-74
2023/03/22 15:23:22;;;;;;;;;4.75;4.75;;;;;15.77;61.82;100422.13;5059599;28;46560;-74
2023/03/22 15:25:50;;;;;;;;;8.00;6.25;;;;;15.75;61.81;100413.25;5058846;28;45452;-75
2023/03/22 15:28:20;;;;;;;;;5.25;5.25;;;;;15.61;61.94;100408.88;5042075;28;45354;-76
2023/03/22 15:30:49;;;;;;;;;5.00;5.00;;;;;15.70;61.79;100410.91;5057084;28;45316;-77
2023/03/22 15:33:22;;;;;;;;;7.75;6.25;;;;;15.63;62.16;100409.63;5039053;28;46237;-75
2023/03/22 15:35:50;;;;;;;;;5.75;5.75;;;;;15.70;62.01;100412.75;5057126;28;45367;-73
2023/03/22 15:38:30;;;;;;;;;4.00;4.00;;;;;15.60;61.39;100385.50;5057100;28;45460;-74
2023/03/22 15:40:57;;;;;;;;;2.50;2.50;;;;;15.67;61.49;100399.44;5057593;28;45320;-75
2023/03/22 15:43:32;;;;;;;;;3.25;3.00;;;;;15.77;61.58;100406.78;5058022;28;45686;-73
2023/03/22 15:46:10;;;;;;;;;3.25;3.25;;;;;15.81;61.47;100408.28;5057952;28;45327;-72
2023/03/22 15:48:42;;;;;;;;;5.75;4.00;;;;;15.81;61.47;100405.59;5058052;28;45482;-74
2023/03/22 15:51:14;;;;;;;;;3.00;3.00;;;;;15.85;61.54;100400.81;5056848;28;45469;-76
2023/03/22 15:53:40;;;;;;;;;3.50;3.50;;;;;16.04;60.89;100409.31;5056862;28;46573;-73
2023/03/22 15:56:21;;;;;;;;;3.25;2.25;;;;;15.98;60.25;100379.16;5056473;28;45666;-74
2023/03/22 15:58:58;;;;;;;;;5.25;4.50;;;;;16.33;60.39;100395.47;5056700;28;45541;-74
2023/03/22 16:01:24;;;;;;;;;4.75;4.00;;;;;16.49;59.69;100409.56;5057069;28;45385;-75
2023/03/22 16:03:55;;;;;;;;;3.75;3.75;;;;;16.49;59.38;100396.03;5056474;28;45915;-76
2023/03/22 16:06:23;;;;;;;;;4.00;4.00;;;;;16.52;58.99;100401.19;5069883;28;45346;-75
2023/03/22 16:08:49;;;;;;;;;8.00;4.00;;;;;16.32;59.26;100412.66;5063024;28;45401;-73
2023/03/22 16:11:15;;;;;;;;;4.00;2.25;;;;;16.10;59.51;100392.63;5076922;28;45592;-73
2023/03/22 16:13:42;;;;;;;;;5.50;4.50;;;;;16.10;59.98;100402.56;5058784;28;47421;-73
2023/03/22 16:16:16;;;;;;;;;3.00;3.00;;;;;16.09;59.91;100381.91;5077011;28;45375;-73
2023/03/22 16:18:42;;;;;;;;;4.75;3.00;;;;;16.16;60.11;100388.59;5076646;28;45355;-74
2023/03/22 16:21:28;;;;;;;;;3.00;3.00;;;;;16.09;60.24;100382.75;5076639;28;45576;-73
2023/03/22 16:23:54;;;;;;;;;1.75;1.75;;;;;16.07;59.81;100395.56;5076974;28;46255;-76
2023/03/22 16:26:19;;;;;;;;;4.75;3.00;;;;;16.05;59.94;100396.66;5075235;28;45263;-74
2023/03/22 16:28:45;;;;;;;;;3.25;3.25;;;;;16.04;59.80;100401.19;5026503;28;45284;-73
2023/03/22 16:31:13;;;;;;;;;5.75;4.00;;;;;15.99;60.25;100389.00;5056007;28;45502;-73
2023/03/22 16:33:39;;;;;;;;;3.00;3.00;;;;;16.03;60.28;100383.22;5056459;28;46195;-75
2023/03/22 16:36:07;;;;;;;;;3.25;3.25;;;;;15.96;59.89;100373.00;5056224;28;45368;-75
2023/03/22 16:38:33;;;;;;;;;3.50;3.50;;;;;15.87;59.85;100383.50;5056170;28;45344;-75
2023/03/22 16:41:00;;;;;;;;;4.00;2.25;;;;;15.81;60.20;100377.69;5055700;28;45344;-74
2023/03/22 16:43:25;;;;;;;;;1.25;1.25;;;;;15.86;60.00;100370.97;5037856;28;48993;-73
2023/03/22 16:45:51;;;;;;;;;3.25;3.25;;;;;15.98;60.16;100379.16;5038025;28;45451;-76
2023/03/22 16:48:16;;;;;;;;;7.00;3.00;;;;;16.01;60.08;100371.66;5056306;28;45555;-72
2023/03/22 16:50:44;;;;;;;;;4.00;4.00;;;;;16.04;59.94;100368.75;5037579;28;45895;-74
2023/03/22 16:53:13;;;;;;;;;5.00;3.00;;;;;16.06;59.92;100364.09;5056332;28;45394;-74
2023/03/22 16:55:39;;;;;;;;;3.25;3.25;;;;;15.95;59.68;100353.19;5055804;28;45450;-75
2023/03/22 16:58:04;;;;;;;;;2.00;2.00;;;;;15.96;59.56;100367.59;5061426;28;45506;-74
2023/03/22 17:00:30;;;;;;;;;3.00;3.00;;;;;15.92;59.92;100352.56;5037980;28;46124;-74
2023/03/22 17:02:58;;;;;;;;;3.75;3.75;;;;;15.72;60.38;100330.59;5056296;28;45651;-75
2023/03/22 17:05:25;;;;;;;;;2.25;2.25;;;;;15.84;60.17;100367.50;5055780;28;45500;-71
2023/03/22 17:07:54;;;;;;;;;4.00;3.00;;;;;15.84;61.02;100366.63;5037687;28;45380;-73